Maxton, North Carolina
Current Conditions -  °F | °C
As of 10:52 AM on Saturday 20 Dec 2014 (Local Time) from KMEB Reporting Station
Light Rain Light Rain  
Wind Chill: 35°   Ceiling: 6000
Heat Index: 41°   Visibility: 6mi
Dew Point: 37°   Wind: 9mph
Humidity: 86%   Direction: 60°ENE
Pressure: 30.28"   Gusts: NA
Location:  34.74°N, 79.35°W
Report Text: KMEB 201552Z AUTO 06008KT 6SM -RA BR BKN060 OVC075 05/03 A3028 RMK AO2 RAE19B43 SLP254 P0001 T00500028
Loading
Personal Weather Stations






























Interactive Weather Map New forecast layout! Learn more

10-Day Weather Forecast

Advertisements
Track Severe Weather on mobile